Time;durP1;ratioP1;P1;durP2;ratioP2;P2;SDS_P1;SDS_P2;PMS_P1;PMS_P2;Temp;Humidity;BMP_temperature;BMP_pressure;BME280_temperature;BME280_humidity;BME280_pressure;Samples;Min_cycle;Max_cycle;Signal;HPM_P1;HPM_P2
2022/08/30 00:03:13;;;;;;;0.63;0.50;;;;;;;;;;5073267;28;20043;-54
2022/08/30 00:05:39;;;;;;;1.08;0.63;;;;;;;;;;5075355;28;20479;-56
2022/08/30 00:08:05;;;;;;;0.80;0.70;;;;;;;;;;5072280;28;20059;-55
2022/08/30 00:10:32;;;;;;;0.57;0.57;;;;;;;;;;5074842;28;20074;-58
2022/08/30 00:12:58;;;;;;;0.52;0.52;;;;;;;;;;5073983;28;20045;-53
2022/08/30 00:15:25;;;;;;;0.90;0.60;;;;;;;;;;5080213;28;20139;-55
2022/08/30 00:17:51;;;;;;;0.60;0.60;;;;;;;;;;5078426;28;20039;-55
2022/08/30 00:20:20;;;;;;;0.70;0.60;;;;;;;;;;5083332;28;20524;-55
2022/08/30 00:22:46;;;;;;;0.55;0.55;;;;;;;;;;5081483;28;20040;-55
2022/08/30 00:25:13;;;;;;;0.60;0.60;;;;;;;;;;5079717;28;20028;-55
2022/08/30 00:27:40;;;;;;;0.40;0.40;;;;;;;;;;5077201;28;20040;-55
2022/08/30 00:30:07;;;;;;;0.22;0.20;;;;;;;;;;5074319;28;20102;-55
2022/08/30 00:32:33;;;;;;;1.88;0.60;;;;;;;;;;5078651;28;20051;-55
2022/08/30 00:34:59;;;;;;;0.40;0.40;;;;;;;;;;5080541;28;20609;-54
2022/08/30 00:37:26;;;;;;;0.52;0.50;;;;;;;;;;5083392;28;20121;-52
2022/08/30 00:39:52;;;;;;;0.60;0.40;;;;;;;;;;5076999;28;20466;-54
2022/08/30 00:42:18;;;;;;;0.40;0.40;;;;;;;;;;5078064;28;20160;-54
2022/08/30 00:44:44;;;;;;;0.65;0.50;;;;;;;;;;5076760;28;20045;-56
2022/08/30 00:47:11;;;;;;;0.43;0.35;;;;;;;;;;5077272;28;20634;-54
2022/08/30 00:49:38;;;;;;;0.25;0.25;;;;;;;;;;5077459;28;20051;-55
2022/08/30 00:52:06;;;;;;;0.45;0.38;;;;;;;;;;5077071;28;20060;-54
2022/08/30 00:54:33;;;;;;;0.60;0.30;;;;;;;;;;5078930;28;20063;-59
2022/08/30 00:56:59;;;;;;;0.40;0.40;;;;;;;;;;5079687;28;20049;-53
2022/08/30 00:59:25;;;;;;;0.75;0.68;;;;;;;;;;5077847;28;20040;-50
2022/08/30 01:01:52;;;;;;;0.40;0.40;;;;;;;;;;5079786;28;20945;-55
2022/08/30 01:04:20;;;;;;;0.47;0.40;;;;;;;;;;5077938;28;20063;-55
2022/08/30 01:06:46;;;;;;;0.75;0.70;;;;;;;;;;5075277;28;20048;-58
2022/08/30 01:09:13;;;;;;;0.60;0.60;;;;;;;;;;5076709;28;20499;-53
2022/08/30 01:11:40;;;;;;;0.85;0.40;;;;;;;;;;5078606;28;20044;-53
2022/08/30 01:14:07;;;;;;;0.52;0.52;;;;;;;;;;5083200;28;20093;-53
2022/08/30 01:16:34;;;;;;;0.70;0.70;;;;;;;;;;5080450;28;20131;-52
2022/08/30 01:19:00;;;;;;;1.52;0.88;;;;;;;;;;5075754;28;20045;-54
2022/08/30 01:21:35;;;;;;;1.08;0.68;;;;;;;;;;5061847;28;20082;-54
2022/08/30 01:24:02;;;;;;;0.63;0.50;;;;;;;;;;5074794;28;20618;-53
2022/08/30 01:26:29;;;;;;;0.60;0.60;;;;;;;;;;5076857;28;20048;-54
2022/08/30 01:28:58;;;;;;;0.77;0.73;;;;;;;;;;5083000;28;20411;-53
2022/08/30 01:31:24;;;;;;;1.15;0.55;;;;;;;;;;5079192;28;20044;-51
2022/08/30 01:33:50;;;;;;;1.15;0.70;;;;;;;;;;5077255;28;20092;-53
2022/08/30 01:36:16;;;;;;;0.70;0.60;;;;;;;;;;5077839;28;20040;-53
2022/08/30 01:38:42;;;;;;;0.75;0.63;;;;;;;;;;5082114;28;20117;-52
2022/08/30 01:41:08;;;;;;;0.55;0.40;;;;;;;;;;5077753;28;20131;-55
2022/08/30 01:43:34;;;;;;;0.60;0.50;;;;;;;;;;5078290;28;20091;-54
2022/08/30 01:46:01;;;;;;;0.40;0.40;;;;;;;;;;5083546;28;20114;-52
2022/08/30 01:48:27;;;;;;;0.40;0.40;;;;;;;;;;5075738;28;20063;-54
2022/08/30 01:50:54;;;;;;;2.05;0.93;;;;;;;;;;5075167;28;20047;-53
2022/08/30 01:53:20;;;;;;;0.50;0.50;;;;;;;;;;5078254;28;20064;-55
2022/08/30 01:55:47;;;;;;;0.95;0.50;;;;;;;;;;5080848;28;20048;-58
2022/08/30 01:58:13;;;;;;;0.20;0.20;;;;;;;;;;5074532;28;20379;-51
2022/08/30 02:00:39;;;;;;;0.47;0.40;;;;;;;;;;5077720;28;20443;-55
2022/08/30 02:03:05;;;;;;;0.30;0.30;;;;;;;;;;5077207;28;20049;-53
2022/08/30 02:05:32;;;;;;;0.30;0.30;;;;;;;;;;5078087;28;20549;-52
2022/08/30 02:07:58;;;;;;;0.32;0.32;;;;;;;;;;5077571;28;20603;-55
2022/08/30 02:10:25;;;;;;;0.85;0.57;;;;;;;;;;5075579;28;20055;-52
2022/08/30 02:12:51;;;;;;;0.55;0.40;;;;;;;;;;5076841;28;20050;-54
2022/08/30 02:15:17;;;;;;;0.20;0.20;;;;;;;;;;5073401;28;20044;-54
2022/08/30 02:17:43;;;;;;;0.10;0.10;;;;;;;;;;5073789;28;20579;-55
2022/08/30 02:20:09;;;;;;;0.22;0.22;;;;;;;;;;5073631;28;20399;-53
2022/08/30 02:22:35;;;;;;;0.30;0.22;;;;;;;;;;5076535;28;20048;-52
2022/08/30 02:25:02;;;;;;;0.20;0.20;;;;;;;;;;5076878;28;20089;-59
2022/08/30 02:27:28;;;;;;;0.22;0.22;;;;;;;;;;5077748;28;20063;-54
2022/08/30 02:29:55;;;;;;;0.90;0.28;;;;;;;;;;5073678;28;20495;-53
2022/08/30 02:32:21;;;;;;;0.25;0.25;;;;;;;;;;5075506;28;20052;-52
2022/08/30 02:34:47;;;;;;;0.40;0.40;;;;;;;;;;5072225;28;20044;-55
2022/08/30 02:37:14;;;;;;;0.25;0.25;;;;;;;;;;5075766;28;20059;-55
2022/08/30 02:39:40;;;;;;;0.82;0.20;;;;;;;;;;5078575;28;20044;-54
2022/08/30 02:42:06;;;;;;;0.30;0.25;;;;;;;;;;5076439;28;20087;-53
2022/08/30 02:44:32;;;;;;;0.20;0.20;;;;;;;;;;5074988;28;20083;-56
2022/08/30 02:46:58;;;;;;;0.30;0.30;;;;;;;;;;5080306;28;20041;-56
2022/08/30 02:49:24;;;;;;;0.30;0.30;;;;;;;;;;5078608;28;20457;-51
2022/08/30 02:51:50;;;;;;;0.30;0.25;;;;;;;;;;5075139;28;20052;-52
2022/08/30 02:54:18;;;;;;;0.40;0.30;;;;;;;;;;5077532;28;20054;-51
2022/08/30 02:56:48;;;;;;;0.30;0.30;;;;;;;;;;5078518;28;20106;-56
2022/08/30 02:59:14;;;;;;;0.45;0.38;;;;;;;;;;5075540;28;20514;-53
2022/08/30 03:01:41;;;;;;;2.72;0.38;;;;;;;;;;5076013;28;20094;-53
2022/08/30 03:04:08;;;;;;;0.57;0.52;;;;;;;;;;5075303;28;20119;-52
2022/08/30 03:06:34;;;;;;;0.47;0.45;;;;;;;;;;5075365;28;20388;-53
2022/08/30 03:09:00;;;;;;;0.60;0.57;;;;;;;;;;5073393;28;20470;-55
2022/08/30 03:11:28;;;;;;;0.43;0.30;;;;;;;;;;5076034;28;20051;-54
2022/08/30 03:13:54;;;;;;;0.40;0.40;;;;;;;;;;5074650;28;20056;-52
2022/08/30 03:16:21;;;;;;;0.57;0.57;;;;;;;;;;5075126;28;20052;-55
2022/08/30 03:18:47;;;;;;;0.28;0.28;;;;;;;;;;5072732;28;20128;-56
2022/08/30 03:21:14;;;;;;;1.45;0.50;;;;;;;;;;5074053;28;20040;-54
2022/08/30 03:23:41;;;;;;;0.60;0.60;;;;;;;;;;5074554;28;20048;-55
2022/08/30 03:26:07;;;;;;;0.38;0.38;;;;;;;;;;5071546;28;20044;-53
2022/08/30 03:28:33;;;;;;;0.68;0.40;;;;;;;;;;5076173;28;20896;-55
2022/08/30 03:31:00;;;;;;;0.57;0.40;;;;;;;;;;5077878;28;20409;-55
2022/08/30 03:33:26;;;;;;;0.63;0.50;;;;;;;;;;5073975;28;20047;-55
2022/08/30 03:35:52;;;;;;;0.82;0.65;;;;;;;;;;5075649;28;20105;-55
2022/08/30 03:38:18;;;;;;;0.60;0.60;;;;;;;;;;5074841;28;20435;-52
2022/08/30 03:40:44;;;;;;;0.68;0.68;;;;;;;;;;5074232;28;20135;-55
2022/08/30 03:43:10;;;;;;;0.63;0.63;;;;;;;;;;5077271;28;20059;-56
2022/08/30 03:45:36;;;;;;;0.30;0.30;;;;;;;;;;5070979;28;20040;-53
2022/08/30 03:48:02;;;;;;;0.70;0.70;;;;;;;;;;5074729;28;20094;-54
2022/08/30 03:50:29;;;;;;;0.50;0.50;;;;;;;;;;5072979;28;20102;-52
2022/08/30 03:52:56;;;;;;;0.50;0.50;;;;;;;;;;5073622;28;20052;-52
2022/08/30 03:55:22;;;;;;;0.60;0.60;;;;;;;;;;5073231;28;20048;-53
2022/08/30 03:57:48;;;;;;;0.52;0.52;;;;;;;;;;5079520;28;20040;-56
2022/08/30 04:00:15;;;;;;;1.20;0.80;;;;;;;;;;5075282;28;20048;-54
2022/08/30 04:02:42;;;;;;;0.60;0.60;;;;;;;;;;5074850;28;20040;-52
2022/08/30 04:05:09;;;;;;;0.60;0.60;;;;;;;;;;5074900;28;20044;-53
2022/08/30 04:07:35;;;;;;;0.68;0.68;;;;;;;;;;5059393;28;20044;-55
2022/08/30 04:10:03;;;;;;;1.02;0.93;;;;;;;;;;5074880;28;20031;-52
2022/08/30 04:12:29;;;;;;;0.80;0.80;;;;;;;;;;5077159;28;20109;-53
2022/08/30 04:14:55;;;;;;;0.63;0.63;;;;;;;;;;5073165;28;20044;-56
2022/08/30 04:17:21;;;;;;;0.63;0.60;;;;;;;;;;5078289;28;20100;-53
2022/08/30 04:19:47;;;;;;;0.85;0.82;;;;;;;;;;5073593;28;20473;-56
2022/08/30 04:22:13;;;;;;;0.60;0.60;;;;;;;;;;5070998;28;20112;-54
2022/08/30 04:24:40;;;;;;;0.80;0.80;;;;;;;;;;5074459;28;20097;-55
2022/08/30 04:27:07;;;;;;;0.80;0.80;;;;;;;;;;5075021;28;20576;-55
2022/08/30 04:29:33;;;;;;;0.88;0.70;;;;;;;;;;5072102;28;20097;-54
2022/08/30 04:31:59;;;;;;;0.55;0.50;;;;;;;;;;5073120;28;20041;-53
2022/08/30 04:34:25;;;;;;;0.60;0.60;;;;;;;;;;5075710;28;20055;-56
2022/08/30 04:36:51;;;;;;;0.82;0.82;;;;;;;;;;5073804;28;20214;-54
2022/08/30 04:39:18;;;;;;;1.38;0.75;;;;;;;;;;5073109;28;20036;-55
2022/08/30 04:41:44;;;;;;;0.60;0.47;;;;;;;;;;5073286;28;20053;-53
2022/08/30 04:44:10;;;;;;;0.45;0.40;;;;;;;;;;5075771;28;20047;-53
2022/08/30 04:46:36;;;;;;;0.47;0.47;;;;;;;;;;5070473;28;20044;-53
2022/08/30 04:49:03;;;;;;;0.60;0.60;;;;;;;;;;5073624;28;20040;-56
2022/08/30 04:51:29;;;;;;;0.60;0.57;;;;;;;;;;5074193;28;20354;-53
2022/08/30 04:53:55;;;;;;;0.60;0.60;;;;;;;;;;5079133;28;20051;-56
2022/08/30 04:56:22;;;;;;;0.68;0.68;;;;;;;;;;5072830;28;20102;-54
2022/08/30 04:58:49;;;;;;;0.50;0.50;;;;;;;;;;5071618;28;20055;-53
2022/08/30 05:01:17;;;;;;;0.70;0.60;;;;;;;;;;5078792;28;20058;-52
2022/08/30 05:03:43;;;;;;;0.85;0.40;;;;;;;;;;5076202;28;20044;-54
2022/08/30 05:06:11;;;;;;;0.63;0.60;;;;;;;;;;5078569;28;20043;-53
2022/08/30 05:08:37;;;;;;;0.63;0.63;;;;;;;;;;5079957;28;20044;-55
2022/08/30 05:11:04;;;;;;;0.32;0.32;;;;;;;;;;5075968;28;20044;-56
2022/08/30 05:13:30;;;;;;;0.65;0.50;;;;;;;;;;5076776;28;20632;-56
2022/08/30 05:15:56;;;;;;;0.40;0.40;;;;;;;;;;5083557;28;20039;-56
2022/08/30 05:18:22;;;;;;;0.30;0.30;;;;;;;;;;5075918;28;20048;-54
2022/08/30 05:20:48;;;;;;;0.38;0.38;;;;;;;;;;5079502;28;20048;-53
2022/08/30 05:23:14;;;;;;;0.35;0.30;;;;;;;;;;5060888;28;20084;-56
2022/08/30 05:25:40;;;;;;;0.40;0.40;;;;;;;;;;5075930;28;20044;-54
2022/08/30 05:28:07;;;;;;;0.30;0.30;;;;;;;;;;5077904;28;20048;-53
2022/08/30 05:30:34;;;;;;;0.38;0.38;;;;;;;;;;5075466;28;20040;-56
2022/08/30 05:33:00;;;;;;;0.57;0.57;;;;;;;;;;5079406;28;20128;-55
2022/08/30 05:35:26;;;;;;;0.35;0.35;;;;;;;;;;5081031;28;20039;-53
2022/08/30 05:37:53;;;;;;;0.60;0.60;;;;;;;;;;5075822;28;20262;-54
2022/08/30 05:40:19;;;;;;;0.50;0.43;;;;;;;;;;5078612;28;20045;-53
2022/08/30 05:42:45;;;;;;;0.63;0.40;;;;;;;;;;5081521;28;20054;-58
2022/08/30 05:45:13;;;;;;;0.43;0.43;;;;;;;;;;5079930;28;20040;-52
2022/08/30 05:47:39;;;;;;;0.65;0.40;;;;;;;;;;5077791;28;20087;-50
2022/08/30 05:50:08;;;;;;;0.30;0.30;;;;;;;;;;5076982;28;20474;-50
2022/08/30 05:52:38;;;;;;;0.10;0.10;;;;;;;;;;5076494;28;20139;-54
2022/08/30 05:55:06;;;;;;;0.50;0.50;;;;;;;;;;5075179;28;20048;-53
2022/08/30 05:57:33;;;;;;;0.90;0.30;;;;;;;;;;5075689;28;20060;-58
2022/08/30 06:00:00;;;;;;;0.55;0.30;;;;;;;;;;5081026;28;20040;-55
2022/08/30 06:02:26;;;;;;;0.30;0.30;;;;;;;;;;5077172;28;20044;-54
2022/08/30 06:04:52;;;;;;;0.30;0.30;;;;;;;;;;5078750;28;20044;-56
2022/08/30 06:07:18;;;;;;;0.38;0.35;;;;;;;;;;5077273;28;20102;-57
2022/08/30 06:09:44;;;;;;;0.38;0.30;;;;;;;;;;5078599;28;20563;-54
2022/08/30 06:12:10;;;;;;;0.30;0.30;;;;;;;;;;5076301;28;20109;-56
2022/08/30 06:14:37;;;;;;;0.22;0.22;;;;;;;;;;5072866;28;20040;-53
2022/08/30 06:17:03;;;;;;;0.57;0.45;;;;;;;;;;5070516;28;20634;-53
2022/08/30 06:19:29;;;;;;;0.20;0.20;;;;;;;;;;5071865;28;20088;-54
2022/08/30 06:21:56;;;;;;;0.38;0.35;;;;;;;;;;5066409;28;20082;-53
2022/08/30 06:24:22;;;;;;;0.20;0.20;;;;;;;;;;5067289;28;20329;-56
2022/08/30 06:26:48;;;;;;;0.60;0.30;;;;;;;;;;5066690;28;20048;-53
2022/08/30 06:29:16;;;;;;;0.20;0.20;;;;;;;;;;5066566;28;20099;-56
2022/08/30 06:31:42;;;;;;;0.30;0.30;;;;;;;;;;5067240;28;20117;-50
2022/08/30 06:34:08;;;;;;;0.55;0.43;;;;;;;;;;5066863;28;20048;-55
2022/08/30 06:36:35;;;;;;;0.40;0.40;;;;;;;;;;5066685;28;20466;-54
2022/08/30 06:39:01;;;;;;;0.50;0.47;;;;;;;;;;5049170;28;20052;-50
2022/08/30 06:41:29;;;;;;;0.55;0.52;;;;;;;;;;5067891;28;20395;-58
2022/08/30 06:43:55;;;;;;;0.50;0.30;;;;;;;;;;5065906;28;20570;-55
2022/08/30 06:46:22;;;;;;;1.20;0.50;;;;;;;;;;5067170;28;20040;-55
2022/08/30 06:48:48;;;;;;;0.57;0.50;;;;;;;;;;5066210;28;20055;-58
2022/08/30 06:51:15;;;;;;;0.85;0.50;;;;;;;;;;5066453;28;20052;-55
2022/08/30 06:53:41;;;;;;;;;;;;;;;;;;5066886;28;20056;-56
2022/08/30 06:56:07;;;;;;;;;;;;;;;;;;5067886;28;19928;-55
2022/08/30 06:58:32;;;;;;;;;;;;;;;;;;5078445;28;19928;-58
2022/08/30 07:00:58;;;;;;;;;;;;;;;;;;5081696;28;19924;-52
2022/08/30 07:03:26;;;;;;;;;;;;;;;;;;5071328;28;19928;-55
2022/08/30 07:05:52;;;;;;;;;;;;;;;;;;5073718;28;19920;-55
2022/08/30 07:08:18;;;;;;;;;;;;;;;;;;5066159;28;20022;-54
2022/08/30 07:10:44;;;;;;;;;;;;;;;;;;5070238;28;19924;-54
2022/08/30 07:13:10;;;;;;;;;;;;;;;;;;5077341;28;20386;-57
2022/08/30 07:15:36;;;;;;;;;;;;;;;;;;5081296;28;19927;-54
2022/08/30 07:20:46;;;;;;;;;;;;;;;;;;5066741;28;20375;-52
2022/08/30 07:23:12;;;;;;;;;;;;;;;;;;5066293;28;19935;-55
2022/08/30 07:25:38;;;;;;;;;;;;;;;;;;5075722;28;19920;-53
2022/08/30 07:28:04;;;;;;;;;;;;;;;;;;5066175;28;20379;-57
2022/08/30 07:30:30;;;;;;;0.70;0.65;;;;;;;;;;5069762;28;19978;-54
2022/08/30 07:32:56;;;;;;;;;;;;;;;;;;5047595;28;20051;-53
2022/08/30 07:35:22;;;;;;;;;;;;;;;;;;5066528;28;19943;-53
2022/08/30 07:37:48;;;;;;;;;;;;;;;;;;5074875;28;19928;-53
2022/08/30 07:40:14;;;;;;;;;;;;;;;;;;5077092;28;19962;-52
2022/08/30 07:42:40;;;;;;;;;;;;;;;;;;5081409;28;20391;-56
2022/08/30 07:45:06;;;;;;;;;;;;;;;;;;5084778;28;19935;-58
2022/08/30 07:47:32;;;;;;;;;;;;;;;;;;5086779;28;20333;-57
2022/08/30 07:49:58;;;;;;;;;;;;;;;;;;5086619;28;20466;-53
2022/08/30 07:52:23;;;;;;;;;;;;;;;;;;5085778;28;19932;-55
2022/08/30 07:54:49;;;;;;;;;;;;;;;;;;5084762;28;19928;-52
2022/08/30 07:57:15;;;;;;;;;;;;;;;;;;5085676;28;19928;-54
2022/08/30 07:59:42;;;;;;;;;;;;;;;;;;5085370;28;19935;-52
2022/08/30 08:02:07;;;;;;;;;;;;;;;;;;5085599;28;19969;-57
2022/08/30 08:04:34;;;;;;;;;;;;;;;;;;5085980;28;19935;-54
2022/08/30 08:07:00;;;;;;;;;;;;;;;;;;5085518;28;19928;-54
2022/08/30 08:09:26;;;;;;;;;;;;;;;;;;5086558;28;20341;-53
2022/08/30 08:11:52;;;;;;;;;;;;;;;;;;5084831;28;20234;-53
2022/08/30 08:14:18;;;;;;;;;;;;;;;;;;5067988;28;19931;-53
2022/08/30 08:16:45;;;;;;;2.00;0.70;;;;;;;;;;5086447;28;20421;-54
2022/08/30 08:19:11;;;;;;;1.42;0.90;;;;;;;;;;5085930;28;20051;-53
2022/08/30 08:21:38;;;;;;;2.10;0.90;;;;;;;;;;5085297;28;20106;-57
2022/08/30 08:24:04;;;;;;;2.25;1.02;;;;;;;;;;5085518;28;20130;-57
2022/08/30 08:26:30;;;;;;;2.80;1.20;;;;;;;;;;5086275;28;20592;-55
2022/08/30 08:28:56;;;;;;;1.27;0.90;;;;;;;;;;5084866;28;20044;-54
2022/08/30 08:31:22;;;;;;;;;;;;;;;;;;5086209;28;20436;-55
2022/08/30 08:33:48;;;;;;;;;;;;;;;;;;5086476;28;20026;-54
2022/08/30 08:36:14;;;;;;;;;;;;;;;;;;5089370;28;19928;-54
2022/08/30 08:38:40;;;;;;;;;;;;;;;;;;5090443;28;20294;-54
2022/08/30 08:41:06;;;;;;;;;;;;;;;;;;5089812;28;19924;-55
2022/08/30 08:43:31;;;;;;;;;;;;;;;;;;5090040;28;20062;-51
2022/08/30 08:45:57;;;;;;;;;;;;;;;;;;5090317;28;20362;-52
2022/08/30 08:48:23;;;;;;;;;;;;;;;;;;5089696;28;19934;-57
2022/08/30 08:53:34;;;;;;;;;;;;;;;;;;5089714;28;19978;-55
2022/08/30 08:56:00;;;;;;;;;;;;;;;;;;5089383;28;20339;-54
2022/08/30 08:58:25;;;;;;;;;;;;;;;;;;5090029;28;20345;-55
2022/08/30 09:00:51;;;;;;;;;;;;;;;;;;5089243;28;20025;-54
2022/08/30 09:03:17;;;;;;;;;;;;;;;;;;5089061;28;19924;-55
2022/08/30 09:05:43;;;;;;;;;;;;;;;;;;5090002;28;19930;-54
2022/08/30 09:08:09;;;;;;;;;;;;;;;;;;5089223;28;19924;-55
2022/08/30 09:10:35;;;;;;;;;;;;;;;;;;5083911;28;20014;-56
2022/08/30 09:13:01;;;;;;;;;;;;;;;;;;5088465;28;19924;-53
2022/08/30 09:15:27;;;;;;;;;;;;;;;;;;5089929;28;19927;-51
2022/08/30 09:17:53;;;;;;;;;;;;;;;;;;5088846;28;19924;-54
2022/08/30 09:20:26;;;;;;;0.90;0.70;;;;;;;;;;5087758;28;20364;-54
2022/08/30 09:22:52;;;;;;;1.10;1.00;;;;;;;;;;5083094;28;20055;-52
2022/08/30 09:25:18;;;;;;;0.82;0.80;;;;;;;;;;5074412;28;20123;-55
2022/08/30 09:27:45;;;;;;;0.80;0.63;;;;;;;;;;5087309;28;20082;-53
2022/08/30 09:30:19;;;;;;;0.68;0.68;;;;;;;;;;5073458;28;20083;-55
2022/08/30 09:32:58;;;;;;;1.40;0.80;;;;;;;;;;5067641;28;20052;-59
2022/08/30 09:35:24;;;;;;;0.43;0.43;;;;;;;;;;5074262;28;20148;-56
2022/08/30 09:37:55;;;;;;;0.57;0.57;;;;;;;;;;5073555;28;20115;-53
2022/08/30 09:40:47;;;;;;;0.65;0.52;;;;;;;;;;5073267;28;20040;-54
2022/08/30 09:43:13;;;;;;;;;;;;;;;;;;5073617;28;20677;-53
2022/08/30 09:45:41;;;;;;;0.70;0.70;;;;;;;;;;5075515;28;19930;-56
2022/08/30 09:48:21;;;;;;;1.92;0.57;;;;;;;;;;5063712;28;20441;-53
2022/08/30 09:50:53;;;;;;;1.63;0.70;;;;;;;;;;5074721;28;20055;-54
2022/08/30 09:53:22;;;;;;;0.73;0.63;;;;;;;;;;5081281;28;20138;-53
2022/08/30 09:55:55;;;;;;;1.00;0.60;;;;;;;;;;5068902;28;20040;-54
2022/08/30 09:58:21;;;;;;;;;;;;;;;;;;5068131;28;20097;-53
2022/08/30 10:00:47;;;;;;;;;;;;;;;;;;5086691;28;20047;-51
2022/08/30 10:03:13;;;;;;;;;;;;;;;;;;5081844;28;20021;-54
2022/08/30 10:05:39;;;;;;;;;;;;;;;;;;5075246;28;19925;-54
2022/08/30 10:08:05;;;;;;;;;;;;;;;;;;5072375;28;19978;-54
2022/08/30 10:10:31;;;;;;;;;;;;;;;;;;5087773;28;20432;-55
2022/08/30 10:12:57;;;;;;;;;;;;;;;;;;5080551;28;20290;-54
2022/08/30 10:15:23;;;;;;;;;;;;;;;;;;5051893;28;19920;-55
2022/08/30 10:17:49;;;;;;;;;;;;;;;;;;5067859;28;19920;-55
2022/08/30 10:20:15;;;;;;;;;;;;;;;;;;5067599;28;19971;-54
2022/08/30 10:22:41;;;;;;;;;;;;;;;;;;5068245;28;19958;-54
2022/08/30 10:25:07;;;;;;;;;;;;;;;;;;5067381;28;20282;-54
2022/08/30 10:27:33;;;;;;;;;;;;;;;;;;5081467;28;19920;-54
2022/08/30 10:29:59;;;;;;;;;;;;;;;;;;5074618;28;19945;-53
2022/08/30 10:32:25;;;;;;;;;;;;;;;;;;5067600;28;20302;-54
2022/08/30 10:34:50;;;;;;;;;;;;;;;;;;5067073;28;19920;-52
2022/08/30 10:37:16;;;;;;;;;;;;;;;;;;5085749;28;19924;-53
2022/08/30 10:39:42;;;;;;;;;;;;;;;;;;5077655;28;20310;-53
2022/08/30 10:42:08;;;;;;;;;;;;;;;;;;5066628;28;19928;-55
2022/08/30 10:44:34;;;;;;;;;;;;;;;;;;5067583;28;19935;-54
2022/08/30 10:47:01;;;;;;;;;;;;;;;;;;5067531;28;19920;-56
2022/08/30 10:49:27;;;;;;;;;;;;;;;;;;5076912;28;19931;-56
2022/08/30 10:51:53;;;;;;;;;;;;;;;;;;5079186;28;19920;-54
2022/08/30 10:54:43;;;;;;;1.88;0.63;;;;;;;;;;5067485;28;20445;-57
2022/08/30 10:57:09;;;;;;;1.58;0.90;;;;;;;;;;5060031;28;20056;-54
2022/08/30 10:59:38;;;;;;;1.00;0.70;;;;;;;;;;5068566;28;20506;-54
2022/08/30 11:02:03;;;;;;;;;;;;;;;;;;5065473;28;20623;-54
2022/08/30 11:04:29;;;;;;;;;;;;;;;;;;5067499;28;19924;-56
2022/08/30 11:06:55;;;;;;;;;;;;;;;;;;5066467;28;19920;-54
2022/08/30 11:09:21;;;;;;;;;;;;;;;;;;5070738;28;20242;-56
2022/08/30 11:11:47;;;;;;;;;;;;;;;;;;5071489;28;19931;-54
2022/08/30 11:14:16;;;;;;;1.40;0.60;;;;;;;;;;5072192;28;19924;-57
2022/08/30 11:16:44;;;;;;;1.85;0.70;;;;;;;;;;5070944;28;20055;-55
2022/08/30 11:19:19;;;;;;;1.05;0.90;;;;;;;;;;5084363;28;20047;-54
2022/08/30 11:21:45;;;;;;;;;;;;;;;;;;5074404;28;20043;-59
2022/08/30 11:24:11;;;;;;;;;;;;;;;;;;5068252;28;19920;-53
2022/08/30 11:26:37;;;;;;;;;;;;;;;;;;5066172;28;19955;-55
2022/08/30 11:29:03;;;;;;;;;;;;;;;;;;5066233;28;20374;-54
2022/08/30 11:31:29;;;;;;;;;;;;;;;;;;5065853;28;19920;-56
2022/08/30 11:33:55;;;;;;;;;;;;;;;;;;5067943;28;20022;-53
2022/08/30 11:36:21;;;;;;;;;;;;;;;;;;5066153;28;20058;-55
2022/08/30 11:38:47;;;;;;;;;;;;;;;;;;5074653;28;19920;-53
2022/08/30 11:41:13;;;;;;;;;;;;;;;;;;5072841;28;20286;-56
2022/08/30 11:43:39;;;;;;;;;;;;;;;;;;5072744;28;19987;-54
2022/08/30 11:46:05;;;;;;;;;;;;;;;;;;5065139;28;19924;-50
2022/08/30 11:48:31;;;;;;;;;;;;;;;;;;5067559;28;19931;-53
2022/08/30 11:50:57;;;;;;;;;;;;;;;;;;5073144;28;20036;-55
2022/08/30 11:53:23;;;;;;;;;;;;;;;;;;5071962;28;20007;-58
2022/08/30 11:55:49;;;;;;;;;;;;;;;;;;5069819;28;19924;-53
2022/08/30 11:58:15;;;;;;;;;;;;;;;;;;5073162;28;20379;-57
2022/08/30 12:00:41;;;;;;;;;;;;;;;;;;5071642;28;19920;-53
2022/08/30 12:03:07;;;;;;;;;;;;;;;;;;5068662;28;20287;-54
2022/08/30 12:05:33;;;;;;;;;;;;;;;;;;5065091;28;19998;-56
2022/08/30 12:07:59;;;;;;;;;;;;;;;;;;5068717;28;20359;-56
2022/08/30 12:10:25;;;;;;;;;;;;;;;;;;5075804;28;19970;-57
2022/08/30 12:12:51;;;;;;;;;;;;;;;;;;5069154;28;20003;-52
2022/08/30 12:15:17;;;;;;;;;;;;;;;;;;5069741;28;20011;-58
2022/08/30 12:20:28;;;;;;;;;;;;;;;;;;5080571;28;19927;-56
2022/08/30 12:22:53;;;;;;;;;;;;;;;;;;5075966;28;19924;-53
2022/08/30 12:25:19;;;;;;;;;;;;;;;;;;5069130;28;20383;-57
2022/08/30 12:27:45;;;;;;;;;;;;;;;;;;5068861;28;19974;-55
2022/08/30 12:30:12;;;;;;;;;;;;;;;;;;5075316;28;19965;-57
2022/08/30 12:32:38;;;;;;;;;;;;;;;;;;5077473;28;20323;-55
2022/08/30 12:35:04;;;;;;;;;;;;;;;;;;5068213;28;19924;-55
2022/08/30 12:37:30;;;;;;;;;;;;;;;;;;5069478;28;19931;-55
2022/08/30 12:39:56;;;;;;;;;;;;;;;;;;5074379;28;19973;-53
2022/08/30 12:42:22;;;;;;;;;;;;;;;;;;5068351;28;20184;-55
2022/08/30 12:44:48;;;;;;;;;;;;;;;;;;5068728;28;20686;-53
2022/08/30 12:47:14;;;;;;;;;;;;;;;;;;5068997;28;19928;-60
2022/08/30 12:49:40;;;;;;;;;;;;;;;;;;5070784;28;19924;-54
2022/08/30 12:52:06;;;;;;;;;;;;;;;;;;5070638;28;19924;-55
2022/08/30 12:54:32;;;;;;;;;;;;;;;;;;5074935;28;19927;-61
2022/08/30 12:56:58;;;;;;;;;;;;;;;;;;5072092;28;20437;-54
2022/08/30 12:59:24;;;;;;;;;;;;;;;;;;5068689;28;20022;-57
2022/08/30 13:01:49;;;;;;;;;;;;;;;;;;5068126;28;19924;-54
2022/08/30 13:04:15;;;;;;;;;;;;;;;;;;5075754;28;19920;-56
2022/08/30 13:06:42;;;;;;;;;;;;;;;;;;5068884;28;19926;-56
2022/08/30 13:09:09;;;;;;;1.42;0.40;;;;;;;;;;5070055;28;19923;-57
2022/08/30 13:11:35;;;;;;;1.35;0.95;;;;;;;;;;5075857;28;20048;-57
2022/08/30 13:14:24;;;;;;;1.33;0.70;;;;;;;;;;5074251;28;20036;-59
2022/08/30 13:16:50;;;;;;;2.88;0.60;;;;;;;;;;5075871;28;20036;-55
2022/08/30 13:19:36;;;;;;;0.68;0.52;;;;;;;;;;5073673;28;20051;-57
2022/08/30 13:22:03;;;;;;;0.75;0.57;;;;;;;;;;5081017;28;20101;-61
2022/08/30 13:24:29;;;;;;;;;;;;;;;;;;5071123;28;20079;-57
2022/08/30 13:26:55;;;;;;;;;;;;;;;;;;5078340;28;20020;-58
2022/08/30 13:29:21;;;;;;;;;;;;;;;;;;5075971;28;19920;-53
2022/08/30 13:31:47;;;;;;;;;;;;;;;;;;5079009;28;19982;-57
2022/08/30 13:34:13;;;;;;;;;;;;;;;;;;5073386;28;20406;-53
2022/08/30 13:36:39;;;;;;;;;;;;;;;;;;5088503;28;19970;-56
2022/08/30 13:39:05;;;;;;;;;;;;;;;;;;5087822;28;19924;-55
2022/08/30 13:41:31;;;;;;;;;;;;;;;;;;5089475;28;19927;-56
2022/08/30 13:43:57;;;;;;;;;;;;;;;;;;5070364;28;19978;-54
2022/08/30 13:46:25;;;;;;;;;;;;;;;;;;5089457;28;19960;-52
2022/08/30 13:48:51;;;;;;;;;;;;;;;;;;5091065;28;19920;-51
2022/08/30 13:51:17;;;;;;;;;;;;;;;;;;5087844;28;20345;-56
2022/08/30 13:53:42;;;;;;;;;;;;;;;;;;5073606;28;19920;-54
2022/08/30 13:56:08;;;;;;;;;;;;;;;;;;5078988;28;19935;-56
2022/08/30 13:58:34;;;;;;;;;;;;;;;;;;5074525;28;19951;-55
2022/08/30 14:01:00;;;;;;;1.52;0.80;;;;;;;;;;5076335;28;20249;-56
2022/08/30 14:03:26;;;;;;;0.60;0.57;;;;;;;;;;5073407;28;20064;-54
2022/08/30 14:05:52;;;;;;;;;;;;;;;;;;5067020;28;19924;-57
2022/08/30 14:08:18;;;;;;;;;;;;;;;;;;5070201;28;20264;-61
2022/08/30 14:10:44;;;;;;;1.45;0.77;;;;;;;;;;5073472;28;19931;-57
2022/08/30 14:13:10;;;;;;;1.05;0.43;;;;;;;;;;5074657;28;20051;-60
2022/08/30 14:15:37;;;;;;;0.93;0.70;;;;;;;;;;5071165;28;20040;-54
2022/08/30 14:18:04;;;;;;;0.93;0.70;;;;;;;;;;5086440;28;20093;-58
2022/08/30 14:20:30;;;;;;;1.65;0.68;;;;;;;;;;5078567;28;20044;-51
2022/08/30 14:22:56;;;;;;;0.63;0.63;;;;;;;;;;5078767;28;20429;-57
2022/08/30 14:25:22;;;;;;;0.93;0.68;;;;;;;;;;5078424;28;20422;-53
2022/08/30 14:27:48;;;;;;;0.60;0.60;;;;;;;;;;5055370;28;20098;-61
2022/08/30 14:30:14;;;;;;;1.20;0.80;;;;;;;;;;5074283;28;20044;-58
2022/08/30 14:32:40;;;;;;;0.77;0.70;;;;;;;;;;5066778;28;20634;-56
2022/08/30 14:35:07;;;;;;;2.42;1.00;;;;;;;;;;5068693;28;20047;-54
2022/08/30 14:37:33;;;;;;;1.20;0.90;;;;;;;;;;5071030;28;20067;-53
2022/08/30 14:39:59;;;;;;;0.60;0.60;;;;;;;;;;5072456;28;20517;-56
2022/08/30 14:42:25;;;;;;;0.63;0.60;;;;;;;;;;5081946;28;20052;-53
2022/08/30 14:44:51;;;;;;;1.75;0.65;;;;;;;;;;5068854;28;20395;-54
2022/08/30 14:47:17;;;;;;;1.75;0.80;;;;;;;;;;5074776;28;20120;-54
2022/08/30 14:49:42;;;;;;;1.48;1.17;;;;;;;;;;5086197;28;20102;-53
2022/08/30 14:52:08;;;;;;;1.10;0.85;;;;;;;;;;5085768;28;20076;-54
2022/08/30 14:54:34;;;;;;;1.13;1.00;;;;;;;;;;5085156;28;20130;-51
2022/08/30 14:57:00;;;;;;;1.50;0.82;;;;;;;;;;5079379;28;20036;-56
2022/08/30 14:59:26;;;;;;;1.20;0.40;;;;;;;;;;5078888;28;20487;-54
2022/08/30 15:01:52;;;;;;;0.85;0.50;;;;;;;;;;5073670;28;20475;-57
2022/08/30 15:04:19;;;;;;;2.25;0.80;;;;;;;;;;5065888;28;20122;-61
2022/08/30 15:06:46;;;;;;;1.55;0.70;;;;;;;;;;5066488;28;20079;-58
2022/08/30 15:09:14;;;;;;;2.92;0.75;;;;;;;;;;5071055;28;20044;-58
2022/08/30 15:11:42;;;;;;;0.80;0.60;;;;;;;;;;5071025;28;20067;-56
2022/08/30 15:14:08;;;;;;;1.00;0.65;;;;;;;;;;5072546;28;20060;-54
2022/08/30 15:16:35;;;;;;;0.65;0.60;;;;;;;;;;5068518;28;20318;-57
2022/08/30 15:19:02;;;;;;;0.98;0.70;;;;;;;;;;5083127;28;20043;-55
2022/08/30 15:21:30;;;;;;;0.40;0.40;;;;;;;;;;5067030;28;20106;-54
2022/08/30 15:23:57;;;;;;;1.85;0.50;;;;;;;;;;5067479;28;20120;-56
2022/08/30 15:26:23;;;;;;;0.43;0.43;;;;;;;;;;5070461;28;20114;-54
2022/08/30 15:28:50;;;;;;;1.35;0.68;;;;;;;;;;5069472;28;20040;-54
2022/08/30 15:31:18;;;;;;;0.95;0.55;;;;;;;;;;5070644;28;20047;-57